createdAt,value
2022-09-15T00:00:14.296Z,17.50
2022-09-15T00:02:40.747Z,17.50
2022-09-15T00:05:07.212Z,17.60
2022-09-15T00:07:33.595Z,17.60
2022-09-15T00:10:00.057Z,17.50
2022-09-15T00:12:26.426Z,17.50
2022-09-15T00:14:52.830Z,17.50
2022-09-15T00:17:19.225Z,17.50
2022-09-15T00:19:45.611Z,17.40
2022-09-15T00:22:12.027Z,17.40
2022-09-15T00:24:38.432Z,17.40
2022-09-15T00:27:04.811Z,17.40
2022-09-15T00:29:31.234Z,17.30
2022-09-15T00:31:57.616Z,17.30
2022-09-15T00:34:24.011Z,17.30
2022-09-15T00:36:50.390Z,17.30
2022-09-15T00:39:16.792Z,17.30
2022-09-15T00:41:43.173Z,17.20
2022-09-15T00:44:09.617Z,17.20
2022-09-15T00:46:36.016Z,17.20
2022-09-15T00:49:02.400Z,17.30
2022-09-15T00:51:28.803Z,17.20
2022-09-15T00:53:55.209Z,17.20
2022-09-15T00:56:21.581Z,17.30
2022-09-15T00:58:47.974Z,17.30
2022-09-15T01:01:14.426Z,17.30
2022-09-15T01:03:40.877Z,17.30
2022-09-15T01:06:07.286Z,17.30
2022-09-15T01:08:33.715Z,17.30
2022-09-15T01:11:01.215Z,17.30
2022-09-15T01:13:27.611Z,17.20
2022-09-15T01:15:54.022Z,17.20
2022-09-15T01:18:20.394Z,17.20
2022-09-15T01:20:46.781Z,17.20
2022-09-15T01:23:13.173Z,17.20
2022-09-15T01:25:39.555Z,17.20
2022-09-15T01:28:05.925Z,17.20
2022-09-15T01:30:32.377Z,17.20
2022-09-15T01:32:58.750Z,17.20
2022-09-15T01:35:25.151Z,17.20
2022-09-15T01:37:51.539Z,17.20
2022-09-15T01:40:18.003Z,17.30
2022-09-15T01:42:44.439Z,17.30
2022-09-15T01:45:10.842Z,17.30
2022-09-15T01:47:37.243Z,17.30
2022-09-15T01:50:03.631Z,17.30
2022-09-15T01:52:30.022Z,17.40
2022-09-15T01:54:56.412Z,17.40
2022-09-15T01:57:22.866Z,17.50
2022-09-15T01:59:49.255Z,17.50
2022-09-15T02:02:15.657Z,17.60
2022-09-15T02:04:42.065Z,17.70
2022-09-15T02:07:08.457Z,17.70
2022-09-15T02:09:34.869Z,17.70
2022-09-15T02:12:01.271Z,17.70
2022-09-15T02:14:27.663Z,17.70
2022-09-15T02:16:54.166Z,17.80
2022-09-15T02:19:20.656Z,17.80
2022-09-15T02:21:47.039Z,17.80
2022-09-15T02:24:13.439Z,17.80
2022-09-15T02:26:39.819Z,17.80
2022-09-15T02:29:06.243Z,17.80
2022-09-15T02:31:32.758Z,17.70
2022-09-15T02:33:59.251Z,17.60
2022-09-15T02:36:25.639Z,17.60
2022-09-15T02:38:52.128Z,17.50
2022-09-15T02:41:18.628Z,17.50
2022-09-15T02:43:45.062Z,17.50
2022-09-15T02:46:11.494Z,17.50
2022-09-15T02:48:37.913Z,17.50
2022-09-15T02:51:04.337Z,17.50
2022-09-15T02:53:30.742Z,17.40
2022-09-15T02:55:57.143Z,17.40
2022-09-15T02:58:23.564Z,17.40
2022-09-15T03:00:50.009Z,17.40
2022-09-15T03:03:16.412Z,17.30
2022-09-15T03:05:42.848Z,17.30
2022-09-15T03:08:09.265Z,17.30
2022-09-15T03:10:35.638Z,17.30
2022-09-15T03:13:02.152Z,17.30
2022-09-15T03:15:28.637Z,17.20
2022-09-15T03:17:55.032Z,17.20
2022-09-15T03:20:21.430Z,17.20
2022-09-15T03:22:47.797Z,17.20
2022-09-15T03:25:14.194Z,17.20
2022-09-15T03:27:40.586Z,17.20
2022-09-15T03:30:06.952Z,17.20
2022-09-15T03:32:33.388Z,17.20
2022-09-15T03:34:59.790Z,17.20
2022-09-15T03:37:26.202Z,17.20
2022-09-15T03:39:52.699Z,17.20
2022-09-15T03:42:19.131Z,17.30
2022-09-15T03:44:45.513Z,17.30
2022-09-15T03:47:11.925Z,17.30
2022-09-15T03:49:38.319Z,17.30
2022-09-15T03:52:04.718Z,17.40
2022-09-15T03:54:31.112Z,17.40
2022-09-15T03:56:57.524Z,17.40
2022-09-15T03:59:23.913Z,17.40
2022-09-15T04:01:50.341Z,17.40
2022-09-15T04:04:16.773Z,17.50
2022-09-15T04:06:43.176Z,17.50
2022-09-15T04:09:09.549Z,17.60
2022-09-15T04:11:35.964Z,17.60
2022-09-15T04:14:02.357Z,17.70
2022-09-15T04:16:28.838Z,17.70
2022-09-15T04:18:55.309Z,17.70
2022-09-15T04:21:21.713Z,17.70
2022-09-15T04:23:48.085Z,17.70
2022-09-15T04:26:14.518Z,17.70
2022-09-15T04:28:40.899Z,17.70
2022-09-15T04:31:07.387Z,17.70
2022-09-15T04:33:33.948Z,17.70
2022-09-15T04:36:00.329Z,17.70
2022-09-15T04:38:26.744Z,17.70
2022-09-15T04:40:53.126Z,17.70
2022-09-15T04:43:19.527Z,17.70
2022-09-15T04:45:45.927Z,17.80
2022-09-15T04:48:12.351Z,17.90
2022-09-15T04:50:38.734Z,18.00
2022-09-15T04:53:05.147Z,18.10
2022-09-15T04:55:31.558Z,18.10
2022-09-15T04:57:57.950Z,18.20
2022-09-15T05:00:24.353Z,18.20
2022-09-15T05:02:50.753Z,18.20
2022-09-15T05:05:17.187Z,18.20
2022-09-15T05:07:43.625Z,18.20
2022-09-15T05:10:10.031Z,18.20
2022-09-15T05:12:36.424Z,18.20
2022-09-15T05:15:02.839Z,18.20
2022-09-15T05:17:32.334Z,18.10
2022-09-15T05:19:58.802Z,18.10
2022-09-15T05:22:25.316Z,18.20
2022-09-15T05:24:51.693Z,18.10
2022-09-15T05:27:18.097Z,18.10
2022-09-15T05:29:44.513Z,18.20
2022-09-15T05:32:10.927Z,18.10
2022-09-15T05:34:37.326Z,18.10
2022-09-15T05:37:03.754Z,18.10
2022-09-15T05:39:30.138Z,18.10
2022-09-15T05:41:56.538Z,18.10
2022-09-15T05:44:22.939Z,18.10
2022-09-15T05:46:49.391Z,18.10
2022-09-15T05:49:15.873Z,18.20
2022-09-15T05:51:42.323Z,18.10
2022-09-15T05:54:08.717Z,18.20
2022-09-15T05:56:35.146Z,18.20
2022-09-15T05:59:01.678Z,18.30
2022-09-15T06:01:28.193Z,18.30
2022-09-15T06:03:54.579Z,18.40
2022-09-15T06:06:20.954Z,18.40
2022-09-15T06:08:48.404Z,18.40
2022-09-15T06:11:15.094Z,18.50
2022-09-15T06:13:41.509Z,18.50
2022-09-15T06:16:07.976Z,18.60
2022-09-15T06:18:34.398Z,18.60
2022-09-15T06:21:00.798Z,18.60
2022-09-15T06:23:27.199Z,18.60
2022-09-15T06:25:53.596Z,18.70
2022-09-15T06:28:20.054Z,18.60
2022-09-15T06:30:46.456Z,18.60
2022-09-15T06:33:12.835Z,18.60
2022-09-15T06:35:39.309Z,18.50
2022-09-15T06:38:05.750Z,18.50
2022-09-15T06:40:32.232Z,18.50
2022-09-15T06:42:58.657Z,18.50
2022-09-15T06:45:25.032Z,18.50
2022-09-15T06:48:07.366Z,18.50
2022-09-15T06:50:37.853Z,18.50
2022-09-15T06:53:04.229Z,18.50
2022-09-15T06:55:30.617Z,18.40
2022-09-15T06:57:57.020Z,18.30
2022-09-15T07:00:23.423Z,18.20
2022-09-15T07:02:49.912Z,17.80
2022-09-15T07:05:16.348Z,17.30
2022-09-15T07:07:42.745Z,16.90
2022-09-15T07:10:09.136Z,16.60
2022-09-15T07:12:35.537Z,16.50
2022-09-15T07:15:01.947Z,16.50
2022-09-15T07:17:28.826Z,16.60
2022-09-15T07:19:55.225Z,16.80
2022-09-15T07:22:21.611Z,16.90
2022-09-15T07:24:48.015Z,17.10
2022-09-15T07:27:14.414Z,17.20
2022-09-15T07:29:40.811Z,17.40
2022-09-15T07:32:07.259Z,17.50
2022-09-15T07:34:33.662Z,17.70
2022-09-15T07:37:00.070Z,17.80
2022-09-15T07:39:26.447Z,18.00
2022-09-15T07:41:52.840Z,18.20
2022-09-15T07:44:19.240Z,18.40
2022-09-15T07:46:45.630Z,18.60
2022-09-15T07:49:12.039Z,18.80
2022-09-15T07:51:38.417Z,19.00
2022-09-15T07:54:04.811Z,19.20
2022-09-15T07:56:31.202Z,19.30
2022-09-15T07:58:57.593Z,19.40
2022-09-15T08:01:23.986Z,19.40
2022-09-15T08:03:50.430Z,19.60
2022-09-15T08:06:16.817Z,19.60
2022-09-15T08:08:43.214Z,19.60
2022-09-15T08:11:09.592Z,19.60
2022-09-15T08:13:36.002Z,19.60
2022-09-15T08:16:02.434Z,19.60
2022-09-15T08:18:28.858Z,19.60
2022-09-15T08:20:55.264Z,19.60
2022-09-15T08:23:21.737Z,19.70
2022-09-15T08:25:48.146Z,19.80
2022-09-15T08:28:14.527Z,19.80
2022-09-15T08:30:40.939Z,19.90
2022-09-15T08:33:07.315Z,20.10
2022-09-15T08:35:33.716Z,20.10
2022-09-15T08:38:00.113Z,20.30
2022-09-15T08:40:26.592Z,20.30
2022-09-15T08:42:53.035Z,20.30
2022-09-15T08:45:19.420Z,20.40
2022-09-15T08:47:45.845Z,20.40
2022-09-15T08:50:12.240Z,20.60
2022-09-15T08:52:38.643Z,20.60
2022-09-15T08:55:05.023Z,20.70
2022-09-15T08:57:31.438Z,20.90
2022-09-15T08:59:57.832Z,21.00
2022-09-15T09:02:24.305Z,21.10
2022-09-15T09:07:32.610Z,21.20
2022-09-15T09:10:03.232Z,21.30
2022-09-15T09:12:29.712Z,21.30
2022-09-15T09:14:56.092Z,21.50
2022-09-15T09:17:22.520Z,21.60
2022-09-15T09:19:48.981Z,21.60
2022-09-15T09:22:15.493Z,21.60
2022-09-15T09:24:41.914Z,21.40
2022-09-15T09:27:08.527Z,21.30
2022-09-15T09:29:34.929Z,21.20
2022-09-15T09:32:01.331Z,21.20
2022-09-15T09:34:27.930Z,21.20
2022-09-15T09:36:54.402Z,21.20
2022-09-15T09:39:20.823Z,21.20
2022-09-15T09:41:47.261Z,21.20
2022-09-15T09:44:13.648Z,21.20
2022-09-15T09:46:40.159Z,21.20
2022-09-15T09:49:06.602Z,21.20
2022-09-15T09:51:33.002Z,21.10
2022-09-15T09:53:59.412Z,21.10
2022-09-15T09:56:25.806Z,21.10
2022-09-15T09:58:52.265Z,21.20
2022-09-15T10:01:18.773Z,21.20
2022-09-15T10:03:45.330Z,21.20
2022-09-15T10:06:11.812Z,21.20
2022-09-15T10:08:38.232Z,21.30
2022-09-15T10:11:04.631Z,21.60
2022-09-15T10:13:31.122Z,21.80
2022-09-15T10:15:57.537Z,22.00
2022-09-15T10:18:24.115Z,22.10
2022-09-15T10:20:50.512Z,22.50
2022-09-15T10:23:16.919Z,22.80
2022-09-15T10:25:59.104Z,23.10
2022-09-15T10:28:26.506Z,23.30
2022-09-15T10:30:52.910Z,23.30
2022-09-15T10:33:19.329Z,23.40
2022-09-15T10:35:45.755Z,23.30
2022-09-15T10:38:12.180Z,23.20
2022-09-15T10:40:38.576Z,23.20
2022-09-15T10:43:04.987Z,23.00
2022-09-15T10:45:31.423Z,22.70
2022-09-15T10:47:57.835Z,22.40
2022-09-15T10:50:24.317Z,22.40
2022-09-15T10:52:50.754Z,22.30
2022-09-15T10:55:22.079Z,22.40
2022-09-15T10:57:59.163Z,22.50
2022-09-15T11:00:25.585Z,22.50
2022-09-15T11:02:52.022Z,22.60
2022-09-15T11:05:21.982Z,22.70
2022-09-15T11:07:49.244Z,22.90
2022-09-15T11:10:15.642Z,23.00
2022-09-15T11:12:42.117Z,23.20
2022-09-15T11:15:08.585Z,23.10
2022-09-15T11:17:35.008Z,23.20
2022-09-15T11:20:01.416Z,23.30
2022-09-15T11:22:27.805Z,23.60
2022-09-15T11:24:54.221Z,23.60
2022-09-15T11:27:20.612Z,23.60
2022-09-15T11:29:47.011Z,23.70
2022-09-15T11:32:13.535Z,24.00
2022-09-15T11:34:39.923Z,24.00
2022-09-15T11:37:06.322Z,23.80
2022-09-15T11:39:32.710Z,23.60
2022-09-15T11:41:59.156Z,23.50
2022-09-15T11:44:25.580Z,23.40
2022-09-15T11:46:52.115Z,23.10
2022-09-15T11:49:18.519Z,23.10
2022-09-15T11:51:44.902Z,23.00
2022-09-15T11:54:11.342Z,22.80
2022-09-15T11:56:37.823Z,22.70
2022-09-15T11:59:04.235Z,22.70
2022-09-15T12:01:30.671Z,22.50
2022-09-15T12:03:57.085Z,22.40
2022-09-15T12:06:23.502Z,22.20
2022-09-15T12:08:49.878Z,22.00
2022-09-15T12:11:16.344Z,21.90
2022-09-15T12:13:42.751Z,22.20
2022-09-15T12:16:09.200Z,22.40
2022-09-15T12:18:39.369Z,22.80
2022-09-15T12:21:07.295Z,23.00
2022-09-15T12:23:33.691Z,22.90
2022-09-15T12:26:00.133Z,22.90
2022-09-15T12:28:26.681Z,22.90
2022-09-15T12:30:53.175Z,22.90
2022-09-15T12:33:19.599Z,22.70
2022-09-15T12:35:49.241Z,22.40
2022-09-15T12:38:15.846Z,22.10
2022-09-15T12:40:42.457Z,21.80
2022-09-15T12:43:08.981Z,21.70
2022-09-15T12:45:35.399Z,21.60
2022-09-15T12:48:02.071Z,21.70
2022-09-15T12:50:28.627Z,21.90
2022-09-15T12:52:55.494Z,22.20
2022-09-15T12:55:22.051Z,22.70
2022-09-15T12:57:48.490Z,24.00
2022-09-15T13:00:14.902Z,24.60
2022-09-15T13:02:41.385Z,24.30
2022-09-15T13:05:07.866Z,24.20
2022-09-15T13:07:34.254Z,24.10
2022-09-15T13:10:00.667Z,24.70
2022-09-15T13:12:27.165Z,24.90
2022-09-15T13:14:53.601Z,24.80
2022-09-15T13:17:19.981Z,24.30
2022-09-15T13:19:46.387Z,23.60
2022-09-15T13:22:12.801Z,23.90
2022-09-15T13:24:39.197Z,24.00
2022-09-15T13:27:05.606Z,24.10
2022-09-15T13:29:31.989Z,23.90
2022-09-15T13:31:58.373Z,24.10
2022-09-15T13:39:57.639Z,24.10
2022-09-15T13:42:24.078Z,24.00
2022-09-15T13:44:50.467Z,24.60
2022-09-15T13:47:16.886Z,25.10
2022-09-15T13:49:43.293Z,25.60
2022-09-15T13:52:09.665Z,26.40
2022-09-15T13:54:36.055Z,26.40
2022-09-15T13:57:02.587Z,25.40
2022-09-15T13:59:28.964Z,24.20
2022-09-15T14:01:55.436Z,23.30
2022-09-15T14:04:21.888Z,22.70
2022-09-15T14:06:48.282Z,22.40
2022-09-15T14:09:15.001Z,22.50
2022-09-15T14:11:41.547Z,22.60
2022-09-15T14:14:07.941Z,22.50
2022-09-15T14:16:34.376Z,22.30
2022-09-15T14:19:00.805Z,22.10
2022-09-15T14:21:27.185Z,21.90
2022-09-15T14:23:53.665Z,21.70
2022-09-15T14:26:20.069Z,21.40
2022-09-15T14:28:46.457Z,21.10
2022-09-15T14:31:12.850Z,19.80
2022-09-15T14:33:39.258Z,18.70
2022-09-15T14:36:05.705Z,18.30
2022-09-15T14:38:32.163Z,18.10
2022-09-15T14:40:58.556Z,18.10
2022-09-15T14:43:24.971Z,18.20
2022-09-15T14:45:53.925Z,18.30
2022-09-15T14:48:24.867Z,18.50
2022-09-15T14:50:51.270Z,18.60
2022-09-15T14:53:17.647Z,18.70
2022-09-15T14:55:44.058Z,18.80
2022-09-15T14:58:10.442Z,19.00
2022-09-15T15:00:36.916Z,19.00
2022-09-15T15:03:03.309Z,18.60
2022-09-15T15:05:29.786Z,17.60
2022-09-15T15:07:56.190Z,16.70
2022-09-15T15:10:22.597Z,16.10
2022-09-15T15:12:48.979Z,15.70
2022-09-15T15:15:15.370Z,15.50
2022-09-15T15:17:41.751Z,15.40
2022-09-15T15:20:08.154Z,15.40
2022-09-15T15:22:34.541Z,15.30
2022-09-15T15:25:00.931Z,15.30
2022-09-15T15:27:27.379Z,15.40
2022-09-15T15:29:53.750Z,15.40
2022-09-15T15:32:20.174Z,15.40
2022-09-15T15:34:46.578Z,15.40
2022-09-15T15:37:13.102Z,15.50
2022-09-15T15:39:39.524Z,15.50
2022-09-15T15:42:05.950Z,15.50
2022-09-15T15:44:32.525Z,15.40
2022-09-15T15:46:58.951Z,15.50
2022-09-15T15:49:25.336Z,15.50
2022-09-15T15:51:51.722Z,15.50
2022-09-15T15:54:18.105Z,15.50
2022-09-15T15:56:44.498Z,15.60
2022-09-15T15:59:10.911Z,15.60
2022-09-15T16:01:37.320Z,15.60
2022-09-15T16:04:03.727Z,15.70
2022-09-15T16:06:30.146Z,15.70
2022-09-15T16:08:56.555Z,15.70
2022-09-15T16:14:07.422Z,15.80
2022-09-15T16:16:33.895Z,15.90
2022-09-15T16:19:00.323Z,15.80
2022-09-15T16:21:26.784Z,15.80
2022-09-15T16:23:53.187Z,15.80
2022-09-15T16:26:19.555Z,15.80
2022-09-15T16:28:46.101Z,15.80
2022-09-15T16:31:12.803Z,15.80
2022-09-15T16:33:39.266Z,15.70
2022-09-15T16:36:05.646Z,15.50
2022-09-15T16:38:32.053Z,15.40
2022-09-15T16:40:58.460Z,15.30
2022-09-15T16:43:24.846Z,15.10
2022-09-15T16:45:51.249Z,14.90
2022-09-15T16:48:17.657Z,14.70
2022-09-15T16:51:25.252Z,14.60
2022-09-15T16:53:30.416Z,14.50
2022-09-15T16:55:56.829Z,14.40
2022-09-15T16:58:23.223Z,14.30
2022-09-15T17:00:49.695Z,14.20
2022-09-15T17:03:16.101Z,14.10
2022-09-15T17:05:46.404Z,14.00
2022-09-15T17:08:14.751Z,13.90
2022-09-15T17:10:41.153Z,13.80
2022-09-15T17:13:07.558Z,13.80
2022-09-15T17:15:33.969Z,13.70
2022-09-15T17:18:00.375Z,13.70
2022-09-15T17:20:26.806Z,13.70
2022-09-15T17:22:53.206Z,13.70
2022-09-15T17:25:19.657Z,13.70
2022-09-15T17:27:46.037Z,13.70
2022-09-15T17:30:12.439Z,13.70
2022-09-15T17:32:38.819Z,13.70
2022-09-15T17:35:05.208Z,13.70
2022-09-15T17:37:31.621Z,13.70
2022-09-15T17:39:59.068Z,13.70
2022-09-15T17:42:25.667Z,13.70
2022-09-15T17:44:52.082Z,13.70
2022-09-15T17:47:18.469Z,13.80
2022-09-15T17:49:44.883Z,13.80
2022-09-15T17:52:11.346Z,13.80
2022-09-15T17:54:37.749Z,13.80
2022-09-15T17:57:04.400Z,13.80
2022-09-15T17:59:30.860Z,13.80
2022-09-15T18:01:57.295Z,13.80
2022-09-15T18:04:23.718Z,13.80
2022-09-15T18:06:50.124Z,13.80
2022-09-15T18:09:16.529Z,13.80
2022-09-15T18:11:42.960Z,13.90
2022-09-15T18:14:09.362Z,13.90
2022-09-15T18:16:35.768Z,14.00
2022-09-15T18:19:02.146Z,14.00
2022-09-15T18:21:28.600Z,14.00
2022-09-15T18:23:55.052Z,14.00
2022-09-15T18:26:25.399Z,14.00
2022-09-15T18:28:52.924Z,14.00
2022-09-15T18:31:19.369Z,13.90
2022-09-15T18:33:45.766Z,13.90
2022-09-15T18:36:12.172Z,13.90
2022-09-15T18:38:38.564Z,13.90
2022-09-15T18:41:04.987Z,13.90
2022-09-15T18:43:31.408Z,13.90
2022-09-15T18:45:57.824Z,13.80
2022-09-15T18:48:24.254Z,13.80
2022-09-15T18:50:50.630Z,13.80
2022-09-15T18:53:17.121Z,13.80
2022-09-15T18:55:43.533Z,13.90
2022-09-15T18:58:09.919Z,13.90
2022-09-15T19:00:36.298Z,13.80
2022-09-15T19:03:02.719Z,13.90
2022-09-15T19:05:29.098Z,13.90
2022-09-15T19:07:55.502Z,13.90
2022-09-15T19:10:21.881Z,13.90
2022-09-15T19:12:48.267Z,13.90
2022-09-15T19:15:14.660Z,13.90
2022-09-15T19:17:41.048Z,13.90
2022-09-15T19:20:07.473Z,13.90
2022-09-15T19:22:33.847Z,13.90
2022-09-15T19:25:00.251Z,13.90
2022-09-15T19:27:26.662Z,13.90
2022-09-15T19:29:53.154Z,13.90
2022-09-15T19:32:19.586Z,13.90
2022-09-15T19:34:45.968Z,13.90
2022-09-15T19:37:16.524Z,13.90
2022-09-15T19:39:44.959Z,13.90
2022-09-15T19:42:11.396Z,13.90
2022-09-15T19:44:37.813Z,13.90
2022-09-15T19:47:04.184Z,13.90
2022-09-15T19:49:30.589Z,13.90
2022-09-15T19:51:56.973Z,13.90
2022-09-15T19:54:23.363Z,13.90
2022-09-15T19:56:49.762Z,13.90
2022-09-15T19:59:16.144Z,13.90
2022-09-15T20:01:42.553Z,13.90
2022-09-15T20:04:08.957Z,13.90
2022-09-15T20:06:35.343Z,13.90
2022-09-15T20:09:01.737Z,13.90
2022-09-15T20:11:28.144Z,13.80
2022-09-15T20:13:54.619Z,13.80
2022-09-15T20:16:21.092Z,13.80
2022-09-15T20:18:47.489Z,13.80
2022-09-15T20:21:26.923Z,13.80
2022-09-15T20:24:00.264Z,13.80
2022-09-15T20:26:26.646Z,13.80
2022-09-15T20:28:53.123Z,13.80
2022-09-15T20:31:19.545Z,13.70
2022-09-15T20:33:45.930Z,13.80
2022-09-15T20:36:12.312Z,13.70
2022-09-15T20:38:38.707Z,13.70
2022-09-15T20:41:05.138Z,13.80
2022-09-15T20:43:31.507Z,13.70
2022-09-15T20:45:57.944Z,13.70
2022-09-15T20:48:24.403Z,13.70
2022-09-15T20:50:50.779Z,13.70
2022-09-15T20:53:17.165Z,13.70
2022-09-15T20:55:43.562Z,13.70
2022-09-15T20:58:09.973Z,13.70
2022-09-15T21:00:36.354Z,13.70
2022-09-15T21:03:02.767Z,13.70
2022-09-15T21:08:04.556Z,13.80
2022-09-15T21:10:30.987Z,13.80
2022-09-15T21:12:57.439Z,13.70
2022-09-15T21:15:23.921Z,13.70
2022-09-15T21:17:50.451Z,13.70
2022-09-15T21:20:16.928Z,13.70
2022-09-15T21:22:43.408Z,13.70
2022-09-15T21:25:09.862Z,13.70
2022-09-15T21:27:36.415Z,13.70
2022-09-15T21:30:02.877Z,13.60
2022-09-15T21:32:29.292Z,13.60
2022-09-15T21:34:55.724Z,13.60
2022-09-15T21:37:22.124Z,13.50
2022-09-15T21:39:48.711Z,13.50
2022-09-15T21:42:15.127Z,13.50
2022-09-15T21:44:41.568Z,13.50
2022-09-15T21:47:08.041Z,13.50
2022-09-15T21:49:34.582Z,13.50
2022-09-15T21:52:01.037Z,13.50
2022-09-15T21:54:27.455Z,13.50
2022-09-15T21:56:53.963Z,13.50
2022-09-15T21:59:20.414Z,13.50
2022-09-15T22:01:46.861Z,13.50
2022-09-15T22:04:13.355Z,13.40
2022-09-15T22:06:39.762Z,13.40
2022-09-15T22:09:06.194Z,13.40
2022-09-15T22:11:32.652Z,13.30
2022-09-15T22:13:59.063Z,13.30
2022-09-15T22:16:25.598Z,13.30
2022-09-15T22:18:52.022Z,13.40
2022-09-15T22:21:18.437Z,13.40
2022-09-15T22:23:44.842Z,13.50
2022-09-15T22:26:11.281Z,13.50
2022-09-15T22:28:37.750Z,13.60
2022-09-15T22:31:04.223Z,13.60
2022-09-15T22:33:30.716Z,13.50
2022-09-15T22:35:57.174Z,13.50
2022-09-15T22:38:23.670Z,13.50
2022-09-15T22:40:50.112Z,13.40
2022-09-15T22:43:16.552Z,13.40
2022-09-15T22:45:43.022Z,13.40
2022-09-15T22:48:09.524Z,13.40
2022-09-15T22:50:35.952Z,13.40
2022-09-15T22:53:02.436Z,13.40
2022-09-15T22:55:28.939Z,13.50
2022-09-15T22:57:55.472Z,13.50
2022-09-15T23:00:21.910Z,13.50
2022-09-15T23:02:48.391Z,13.50
2022-09-15T23:05:14.797Z,13.50
2022-09-15T23:07:41.213Z,13.60
2022-09-15T23:10:07.658Z,13.60
2022-09-15T23:12:34.082Z,13.60
2022-09-15T23:15:00.525Z,13.60
2022-09-15T23:17:27.060Z,13.60
2022-09-15T23:19:53.517Z,13.50
2022-09-15T23:22:19.967Z,13.60
2022-09-15T23:24:46.414Z,13.60
2022-09-15T23:27:12.874Z,13.60
2022-09-15T23:29:39.274Z,13.60
2022-09-15T23:32:05.728Z,13.60
2022-09-15T23:34:32.189Z,13.60
2022-09-15T23:36:58.632Z,13.70
2022-09-15T23:39:25.127Z,13.60
2022-09-15T23:41:51.582Z,13.60
2022-09-15T23:44:17.969Z,13.50
2022-09-15T23:46:44.420Z,13.60
2022-09-15T23:49:12.619Z,13.60
2022-09-15T23:51:40.872Z,13.60
2022-09-15T23:54:07.365Z,13.60
2022-09-15T23:56:33.830Z,13.60
2022-09-15T23:59:00.258Z,13.60
